Time;durP1;ratioP1;P1;durP2;ratioP2;P2;SDS_P1;SDS_P2;PMS_P1;PMS_P2;Temp;Humidity;BMP_temperature;BMP_pressure;BME280_temperature;BME280_humidity;BME280_pressure;Samples;Min_cycle;Max_cycle;Signal;HPM_P1;HPM_P2
2023/09/08 00:00:09;;;;;;;;;15.25;15.25;;;;;;;;5068661;28;8874;-80
2023/09/08 00:02:36;;;;;;;;;14.75;13.00;;;;;;;;5067830;28;9373;-79
2023/09/08 00:05:04;;;;;;;;;12.00;12.00;;;;;;;;5067060;28;8852;-79
2023/09/08 00:07:31;;;;;;;;;15.00;15.00;;;;;;;;5067714;28;8861;-79
2023/09/08 00:09:59;;;;;;;;;15.75;15.75;;;;;;;;5065665;28;8868;-80
2023/09/08 00:12:26;;;;;;;;;11.25;11.25;;;;;;;;5068152;28;8956;-80
2023/09/08 00:14:54;;;;;;;;;15.25;13.25;;;;;;;;5066391;28;8852;-81
2023/09/08 00:17:21;;;;;;;;;16.50;13.25;;;;;;;;5067571;28;8868;-77
2023/09/08 00:19:48;;;;;;;;;14.25;14.25;;;;;;;;5066089;28;8868;-79
2023/09/08 00:22:15;;;;;;;;;14.00;13.00;;;;;;;;5067450;28;8983;-79
2023/09/08 00:24:43;;;;;;;;;16.25;14.75;;;;;;;;5067923;28;8971;-79
2023/09/08 00:27:12;;;;;;;;;12.25;12.25;;;;;;;;5067526;28;8983;-79
2023/09/08 00:29:39;;;;;;;;;13.00;12.00;;;;;;;;5072873;28;8857;-78
2023/09/08 00:32:06;;;;;;;;;14.50;12.75;;;;;;;;5072019;28;8793;-80
2023/09/08 00:34:34;;;;;;;;;12.50;10.75;;;;;;;;5067291;28;8860;-79
2023/09/08 00:37:06;;;;;;;;;14.00;13.00;;;;;;;;5066781;28;8861;-79
2023/09/08 00:39:35;;;;;;;;;14.00;14.00;;;;;;;;5067773;28;8933;-78
2023/09/08 00:42:04;;;;;;;;;13.25;13.25;;;;;;;;5066905;28;8881;-81
2023/09/08 00:44:33;;;;;;;;;13.75;12.00;;;;;;;;5067828;28;8894;-81
2023/09/08 00:47:00;;;;;;;;;15.75;13.25;;;;;;;;5066752;28;9003;-81
2023/09/08 00:49:28;;;;;;;;;14.50;11.50;;;;;;;;5066917;28;8898;-80
2023/09/08 00:51:55;;;;;;;;;15.75;13.00;;;;;;;;5067439;28;9018;-81
2023/09/08 00:54:22;;;;;;;;;13.75;12.75;;;;;;;;5067670;28;8852;-81
2023/09/08 00:56:52;;;;;;;;;14.00;13.00;;;;;;;;5067244;28;8876;-80
2023/09/08 00:59:19;;;;;;;;;13.00;13.00;;;;;;;;5067848;28;8863;-80
2023/09/08 01:01:48;;;;;;;;;14.75;14.00;;;;;;;;5070111;28;8793;-80
2023/09/08 01:04:16;;;;;;;;;15.50;14.00;;;;;;;;5072279;28;8857;-81
2023/09/08 01:06:44;;;;;;;;;11.75;11.75;;;;;;;;5074363;28;8864;-81
2023/09/08 01:09:11;;;;;;;;;14.00;14.00;;;;;;;;5075183;28;8997;-81
2023/09/08 01:11:39;;;;;;;;;12.75;11.25;;;;;;;;5073786;28;8880;-81
2023/09/08 01:14:06;;;;;;;;;13.75;13.75;;;;;;;;5074009;28;8844;-81
2023/09/08 01:16:33;;;;;;;;;15.75;15.00;;;;;;;;5073862;28;8874;-81
2023/09/08 01:19:01;;;;;;;;;15.75;15.25;;;;;;;;5074355;28;8971;-80
2023/09/08 01:22:05;;;;;;;;;13.75;13.00;;;;;;;;5074162;28;9010;-80
2023/09/08 01:25:03;;;;;;;;;19.25;17.75;;;;;;;;5071529;28;8860;-81
2023/09/08 01:27:34;;;;;;;;;14.75;13.00;;;;;;;;5068881;28;8852;-82
2023/09/08 01:30:03;;;;;;;;;14.75;14.00;;;;;;;;5071788;28;8896;-81
2023/09/08 01:32:31;;;;;;;;;14.75;14.75;;;;;;;;5071380;28;8812;-81
2023/09/08 01:34:59;;;;;;;;;15.25;15.00;;;;;;;;5071302;28;8852;-83
2023/09/08 01:37:26;;;;;;;;;19.25;19.25;;;;;;;;5070071;28;8852;-82
2023/09/08 01:39:54;;;;;;;;;17.00;17.00;;;;;;;;5070160;28;8890;-81
2023/09/08 01:42:21;;;;;;;;;14.25;14.25;;;;;;;;5069861;28;9861;-81
2023/09/08 01:44:52;;;;;;;;;12.50;12.50;;;;;;;;5070431;28;8861;-81
2023/09/08 01:47:20;;;;;;;;;13.00;13.00;;;;;;;;5069916;28;8890;-81
2023/09/08 01:49:47;;;;;;;;;11.25;11.25;;;;;;;;5070751;28;8844;-81
2023/09/08 01:52:14;;;;;;;;;15.50;14.00;;;;;;;;5069860;28;8852;-81
2023/09/08 01:54:42;;;;;;;;;17.25;17.25;;;;;;;;5070567;28;9107;-81
2023/09/08 01:57:09;;;;;;;;;13.75;13.75;;;;;;;;5069405;28;8887;-81
2023/09/08 01:59:36;;;;;;;;;13.00;13.00;;;;;;;;5070123;28;8848;-81
2023/09/08 02:02:06;;;;;;;;;16.00;15.00;;;;;;;;5069048;28;9684;-84
2023/09/08 02:04:33;;;;;;;;;15.50;14.75;;;;;;;;5069588;28;8887;-81
2023/09/08 02:07:01;;;;;;;;;16.00;16.00;;;;;;;;5069824;28;9623;-81
2023/09/08 02:09:32;;;;;;;;;17.50;17.50;;;;;;;;5069128;28;8848;-82
2023/09/08 02:11:59;;;;;;;;;14.50;13.75;;;;;;;;5069281;28;8864;-81
2023/09/08 02:14:29;;;;;;;;;13.75;13.75;;;;;;;;5069549;28;8864;-81
2023/09/08 02:16:56;;;;;;;;;16.75;14.75;;;;;;;;5069626;28;8836;-81
2023/09/08 02:19:25;;;;;;;;;14.50;14.50;;;;;;;;5069035;28;8840;-82
2023/09/08 02:21:53;;;;;;;;;16.75;16.00;;;;;;;;5069702;28;8849;-81
2023/09/08 02:24:20;;;;;;;;;17.75;15.25;;;;;;;;5069304;28;8824;-81
2023/09/08 02:26:50;;;;;;;;;21.25;18.00;;;;;;;;5069983;28;8966;-82
2023/09/08 02:29:18;;;;;;;;;13.75;13.00;;;;;;;;5069615;28;8878;-81
2023/09/08 02:31:45;;;;;;;;;15.00;15.00;;;;;;;;5069140;28;8863;-81
2023/09/08 02:34:13;;;;;;;;;15.75;15.75;;;;;;;;5068503;28;8856;-81
2023/09/08 02:36:42;;;;;;;;;16.75;16.25;;;;;;;;5069617;28;8850;-79
2023/09/08 02:39:10;;;;;;;;;12.50;12.50;;;;;;;;5069088;28;8844;-82
2023/09/08 02:41:38;;;;;;;;;15.25;15.25;;;;;;;;5069819;28;8887;-81
2023/09/08 02:44:05;;;;;;;;;12.25;10.75;;;;;;;;5069189;28;8983;-81
2023/09/08 02:46:33;;;;;;;;;17.50;14.75;;;;;;;;5070183;28;8863;-80
2023/09/08 02:49:01;;;;;;;;;15.25;14.25;;;;;;;;5070983;28;8984;-81
2023/09/08 02:51:28;;;;;;;;;13.00;11.75;;;;;;;;5073870;28;8871;-80
2023/09/08 02:53:57;;;;;;;;;13.50;13.50;;;;;;;;5074227;28;8953;-80
2023/09/08 02:56:24;;;;;;;;;12.50;12.50;;;;;;;;5073606;28;8856;-80
2023/09/08 02:58:51;;;;;;;;;16.25;16.00;;;;;;;;5066828;28;9023;-80
2023/09/08 03:01:20;;;;;;;;;14.50;14.50;;;;;;;;5070398;28;8837;-81
2023/09/08 03:03:51;;;;;;;;;14.50;14.50;;;;;;;;5068453;28;8960;-81
2023/09/08 03:06:21;;;;;;;;;16.25;14.50;;;;;;;;5068888;28;8856;-81
2023/09/08 03:08:48;;;;;;;;;16.50;16.00;;;;;;;;5069128;28;8864;-81
2023/09/08 03:11:16;;;;;;;;;12.75;12.25;;;;;;;;5068117;28;8899;-80
2023/09/08 03:13:44;;;;;;;;;11.25;11.25;;;;;;;;5068059;28;8848;-81
2023/09/08 03:16:11;;;;;;;;;16.50;14.75;;;;;;;;5067087;28;8848;-81
2023/09/08 03:18:39;;;;;;;;;15.00;12.75;;;;;;;;5068647;28;8852;-82
2023/09/08 03:21:10;;;;;;;;;17.00;15.25;;;;;;;;5068006;28;8868;-81
2023/09/08 03:23:38;;;;;;;;;17.00;14.50;;;;;;;;5067636;28;9571;-81
2023/09/08 03:26:05;;;;;;;;;16.50;15.75;;;;;;;;5068466;28;8859;-81
2023/09/08 03:28:35;;;;;;;;;17.33;15.67;;;;;;;;5068000;28;8844;-81
2023/09/08 03:31:02;;;;;;;;;14.50;14.50;;;;;;;;5068065;28;8822;-81
2023/09/08 03:33:29;;;;;;;;;13.50;12.25;;;;;;;;5068003;28;8840;-81
2023/09/08 03:35:56;;;;;;;;;16.00;16.00;;;;;;;;5068252;28;8888;-81
2023/09/08 03:38:24;;;;;;;;;16.50;15.50;;;;;;;;5067691;28;8848;-80
2023/09/08 03:40:51;;;;;;;;;14.50;14.50;;;;;;;;5068377;28;8862;-81
2023/09/08 03:43:18;;;;;;;;;15.75;15.75;;;;;;;;5068153;28;8868;-81
2023/09/08 03:45:48;;;;;;;;;15.75;14.75;;;;;;;;5068754;28;8849;-80
2023/09/08 03:48:15;;;;;;;;;16.25;16.25;;;;;;;;5066110;28;8841;-82
2023/09/08 03:50:45;;;;;;;;;18.25;18.25;;;;;;;;5068653;28;8856;-81
2023/09/08 03:53:12;;;;;;;;;16.75;16.75;;;;;;;;5068811;28;8860;-80
2023/09/08 03:55:40;;;;;;;;;17.25;17.25;;;;;;;;5067162;28;8876;-81
2023/09/08 03:58:07;;;;;;;;;21.00;19.75;;;;;;;;5067363;28;8883;-80
2023/09/08 04:00:34;;;;;;;;;18.50;18.50;;;;;;;;5066171;28;8777;-80
2023/09/08 04:03:05;;;;;;;;;14.25;14.25;;;;;;;;5067869;28;8864;-81
2023/09/08 04:05:33;;;;;;;;;17.75;17.75;;;;;;;;5066756;28;8848;-80
2023/09/08 04:08:01;;;;;;;;;15.25;15.25;;;;;;;;5066318;28;8858;-81
2023/09/08 04:10:28;;;;;;;;;16.75;14.75;;;;;;;;5062702;28;8863;-81
2023/09/08 04:12:55;;;;;;;;;15.25;15.25;;;;;;;;5068164;28;8852;-79
2023/09/08 04:15:23;;;;;;;;;19.00;14.00;;;;;;;;5067215;28;8898;-80
2023/09/08 04:17:50;;;;;;;;;14.00;14.00;;;;;;;;5068020;28;8961;-81
2023/09/08 04:20:19;;;;;;;;;15.50;15.50;;;;;;;;5066529;28;9253;-80
2023/09/08 04:22:47;;;;;;;;;14.00;14.00;;;;;;;;5067791;28;8864;-82
2023/09/08 04:25:14;;;;;;;;;15.50;14.00;;;;;;;;5068281;28;8836;-83
2023/09/08 04:27:41;;;;;;;;;18.00;16.25;;;;;;;;5071038;28;9280;-81
2023/09/08 04:30:09;;;;;;;;;13.50;11.75;;;;;;;;5069610;28;8864;-81
2023/09/08 04:32:37;;;;;;;;;15.00;13.75;;;;;;;;5070199;28;8875;-81
2023/09/08 04:35:05;;;;;;;;;14.50;14.25;;;;;;;;5073627;28;8856;-81
2023/09/08 04:37:34;;;;;;;;;17.25;16.00;;;;;;;;5072402;28;8870;-81
2023/09/08 04:40:01;;;;;;;;;15.00;15.00;;;;;;;;5069549;28;9002;-81
2023/09/08 04:42:29;;;;;;;;;17.00;15.00;;;;;;;;5070257;28;9033;-81
2023/09/08 04:44:56;;;;;;;;;16.75;16.50;;;;;;;;5070397;28;8851;-81
2023/09/08 04:47:23;;;;;;;;;16.75;16.75;;;;;;;;5070121;28;8840;-81
2023/09/08 04:49:50;;;;;;;;;14.00;14.00;;;;;;;;5070984;28;9689;-80
2023/09/08 04:52:18;;;;;;;;;16.50;16.50;;;;;;;;5070672;28;8902;-80
2023/09/08 04:54:46;;;;;;;;;19.00;17.50;;;;;;;;5068689;28;9014;-81
2023/09/08 04:57:13;;;;;;;;;18.75;18.75;;;;;;;;5064055;28;8904;-81
2023/09/08 04:59:42;;;;;;;;;12.75;12.75;;;;;;;;5070319;28;8837;-80
2023/09/08 05:02:09;;;;;;;;;14.75;14.75;;;;;;;;5070028;28;8796;-81
2023/09/08 05:04:38;;;;;;;;;11.50;11.50;;;;;;;;5069916;28;8840;-80
2023/09/08 05:07:07;;;;;;;;;12.25;12.25;;;;;;;;5067204;28;8875;-79
2023/09/08 05:09:34;;;;;;;;;16.25;16.25;;;;;;;;5070382;28;8859;-82
2023/09/08 05:12:05;;;;;;;;;16.50;15.00;;;;;;;;5069761;28;8841;-80
2023/09/08 05:14:34;;;;;;;;;16.25;15.25;;;;;;;;5070447;28;8939;-81
2023/09/08 05:17:04;;;;;;;;;16.50;16.50;;;;;;;;5069413;28;8853;-81
2023/09/08 05:19:35;;;;;;;;;12.75;12.75;;;;;;;;5070832;28;9089;-87
2023/09/08 05:22:05;;;;;;;;;13.25;13.25;;;;;;;;5071141;28;8845;-83
2023/09/08 05:24:35;;;;;;;;;17.50;16.00;;;;;;;;5076167;28;8869;-87
2023/09/08 05:27:08;;;;;;;;;17.00;12.00;;;;;;;;5075041;28;8860;-85
2023/09/08 05:29:40;;;;;;;;;17.00;16.25;;;;;;;;5072259;28;8945;-85
2023/09/08 05:32:08;;;;;;;;;12.75;12.75;;;;;;;;5061329;28;8797;-86
2023/09/08 05:34:38;;;;;;;;;14.00;14.00;;;;;;;;5070778;28;8868;-86
2023/09/08 05:37:08;;;;;;;;;14.50;14.50;;;;;;;;5072878;28;8971;-85
2023/09/08 05:39:35;;;;;;;;;16.00;16.00;;;;;;;;5070756;28;8894;-83
2023/09/08 05:42:09;;;;;;;;;13.00;13.00;;;;;;;;5071595;28;8890;-89
2023/09/08 05:44:36;;;;;;;;;13.50;13.50;;;;;;;;5071872;28;8955;-85
2023/09/08 05:47:05;;;;;;;;;10.75;10.75;;;;;;;;5069822;28;8840;-85
2023/09/08 05:49:33;;;;;;;;;12.25;12.00;;;;;;;;5071128;28;8855;-86
2023/09/08 05:52:03;;;;;;;;;14.50;14.00;;;;;;;;5074192;28;8869;-84
2023/09/08 05:54:33;;;;;;;;;13.00;13.00;;;;;;;;5072423;28;8922;-85
2023/09/08 05:57:00;;;;;;;;;15.50;15.50;;;;;;;;5071300;28;8918;-85
2023/09/08 05:59:29;;;;;;;;;14.25;14.25;;;;;;;;5070977;28;8848;-85
2023/09/08 06:01:56;;;;;;;;;15.00;14.75;;;;;;;;5072709;28;8777;-85
2023/09/08 06:04:32;;;;;;;;;13.25;13.25;;;;;;;;5073114;28;8860;-84
2023/09/08 06:07:00;;;;;;;;;13.50;13.50;;;;;;;;5073865;28;8858;-83
2023/09/08 06:09:30;;;;;;;;;13.75;13.75;;;;;;;;5056210;28;8975;-84
2023/09/08 06:11:57;;;;;;;;;12.75;12.75;;;;;;;;5073596;28;8844;-89
2023/09/08 06:14:24;;;;;;;;;16.00;15.00;;;;;;;;5071380;28;8976;-90
2023/09/08 06:16:53;;;;;;;;;14.75;14.00;;;;;;;;5072602;28;8859;-83
2023/09/08 06:19:20;;;;;;;;;14.50;12.50;;;;;;;;5073614;28;8841;-88
2023/09/08 06:21:47;;;;;;;;;12.25;12.25;;;;;;;;5072496;28;8852;-85
2023/09/08 06:24:17;;;;;;;;;12.75;12.75;;;;;;;;5071886;28;8860;-90
2023/09/08 06:26:44;;;;;;;;;15.00;12.50;;;;;;;;5069396;28;8868;-84
2023/09/08 06:29:11;;;;;;;;;16.25;16.00;;;;;;;;5052462;28;8865;-86
2023/09/08 06:31:38;;;;;;;;;13.00;13.00;;;;;;;;5069073;28;8801;-86
2023/09/08 06:34:07;;;;;;;;;15.25;15.25;;;;;;;;5069500;28;8937;-85
2023/09/08 06:36:34;;;;;;;;;13.50;13.50;;;;;;;;5068420;28;8952;-85
2023/09/08 06:39:01;;;;;;;;;12.75;11.75;;;;;;;;5069368;28;8963;-86
2023/09/08 06:41:30;;;;;;;;;16.25;14.75;;;;;;;;5069089;28;8955;-87
2023/09/08 06:43:57;;;;;;;;;14.50;12.50;;;;;;;;5070102;28;8848;-87
2023/09/08 06:46:25;;;;;;;;;17.25;15.75;;;;;;;;5068700;28;9010;-84
2023/09/08 06:48:53;;;;;;;;;14.25;13.25;;;;;;;;5069045;28;8906;-85
2023/09/08 06:51:21;;;;;;;;;18.50;15.75;;;;;;;;5067190;28;9737;-85
2023/09/08 06:53:56;;;;;;;;;16.00;14.50;;;;;;;;5069596;28;8881;-84
2023/09/08 06:56:23;;;;;;;;;13.75;13.75;;;;;;;;5068762;28;8883;-83
2023/09/08 06:58:51;;;;;;;;;15.25;15.25;;;;;;;;5070570;28;9687;-84
2023/09/08 07:01:18;;;;;;;;;13.75;13.75;;;;;;;;5069834;28;8792;-85
2023/09/08 07:03:46;;;;;;;;;15.75;15.75;;;;;;;;5069964;28;8877;-85
2023/09/08 07:06:13;;;;;;;;;16.75;16.75;;;;;;;;5068540;28;8840;-83
2023/09/08 07:08:42;;;;;;;;;15.00;15.00;;;;;;;;5067981;28;8968;-84
2023/09/08 07:11:09;;;;;;;;;17.40;14.80;;;;;;;;5068648;28;8876;-84
2023/09/08 07:13:36;;;;;;;;;14.80;14.80;;;;;;;;5067865;28;8878;-83
2023/09/08 07:16:05;;;;;;;;;13.00;11.20;;;;;;;;5068728;28;8844;-84
2023/09/08 07:18:35;;;;;;;;;17.20;15.60;;;;;;;;5068238;28;8860;-83
2023/09/08 07:21:06;;;;;;;;;10.40;10.40;;;;;;;;5068844;28;8900;-84
2023/09/08 07:23:37;;;;;;;;;13.20;12.00;;;;;;;;5068256;28;9841;-83
2023/09/08 07:26:05;;;;;;;;;12.80;12.80;;;;;;;;5068686;28;9717;-84
2023/09/08 07:28:34;;;;;;;;;16.40;16.40;;;;;;;;5068700;28;8841;-83
2023/09/08 07:31:03;;;;;;;;;11.80;11.80;;;;;;;;5070124;28;8866;-83
2023/09/08 07:33:30;;;;;;;;;17.80;14.60;;;;;;;;5070698;28;8876;-84
2023/09/08 07:35:58;;;;;;;;;10.80;10.80;;;;;;;;5073365;28;8864;-83
2023/09/08 07:38:26;;;;;;;;;12.00;11.20;;;;;;;;5072870;28;8895;-83
2023/09/08 07:40:53;;;;;;;;;14.00;12.60;;;;;;;;5073392;28;8979;-83
2023/09/08 07:43:22;;;;;;;;;12.00;12.00;;;;;;;;5072789;28;8876;-83
2023/09/08 07:45:49;;;;;;;;;12.40;12.20;;;;;;;;5070667;28;8840;-83
2023/09/08 07:48:16;;;;;;;;;11.80;11.80;;;;;;;;5067088;28;8894;-84
2023/09/08 07:50:47;;;;;;;;;12.00;12.00;;;;;;;;5067529;28;8863;-86
2023/09/08 07:53:14;;;;;;;;;13.40;13.40;;;;;;;;5054686;28;8900;-84
2023/09/08 07:55:41;;;;;;;;;14.80;12.60;;;;;;;;5067005;28;9662;-85
2023/09/08 07:58:09;;;;;;;;;14.80;14.40;;;;;;;;5067966;28;8852;-84
2023/09/08 08:00:38;;;;;;;;;14.20;13.80;;;;;;;;5066737;28;8848;-84
2023/09/08 08:03:06;;;;;;;;;13.60;13.60;;;;;;;;5067873;28;8886;-83
2023/09/08 08:05:33;;;;;;;;;11.40;11.40;;;;;;;;5067840;28;8961;-83
2023/09/08 08:08:00;;;;;;;;;11.40;11.40;;;;;;;;5067943;28;8892;-83
2023/09/08 08:10:28;;;;;;;;;12.00;11.60;;;;;;;;5067053;28;9747;-85
2023/09/08 08:12:55;;;;;;;;;14.80;14.80;;;;;;;;5068133;28;8879;-84
2023/09/08 08:15:23;;;;;;;;;14.80;14.00;;;;;;;;5067416;28;8849;-85
2023/09/08 08:17:52;;;;;;;;;13.00;13.00;;;;;;;;5067661;28;8898;-84
2023/09/08 08:20:19;;;;;;;;;13.80;12.40;;;;;;;;5067062;28;8844;-85
2023/09/08 08:22:48;;;;;;;;;10.40;10.40;;;;;;;;5067568;28;8845;-84
2023/09/08 08:25:15;;;;;;;;;13.00;12.00;;;;;;;;5067050;28;8872;-83
2023/09/08 08:27:43;;;;;;;;;8.00;8.00;;;;;;;;5067394;28;8852;-85
2023/09/08 08:30:11;;;;;;;;;8.80;8.80;;;;;;;;5065942;28;9624;-84
2023/09/08 08:32:38;;;;;;;;;11.80;11.80;;;;;;;;5067201;28;8923;-84
2023/09/08 08:35:10;;;;;;;;;11.20;11.00;;;;;;;;5067868;28;8848;-84
2023/09/08 08:37:37;;;;;;;;;10.60;10.60;;;;;;;;5068269;28;8856;-84
2023/09/08 08:40:05;;;;;;;;;9.20;8.80;;;;;;;;5067779;28;8939;-84
2023/09/08 08:42:36;;;;;;;;;11.40;10.20;;;;;;;;5069489;28;8986;-86
2023/09/08 08:45:06;;;;;;;;;10.20;10.20;;;;;;;;5067703;28;8879;-84
2023/09/08 08:47:33;;;;;;;;;10.00;8.20;;;;;;;;5067859;28;9659;-84
2023/09/08 08:50:01;;;;;;;;;11.00;11.00;;;;;;;;5067884;28;8868;-84
2023/09/08 08:52:30;;;;;;;;;10.80;10.80;;;;;;;;5066685;28;8958;-85
2023/09/08 08:54:58;;;;;;;;;9.60;9.60;;;;;;;;5067975;28;8861;-84
2023/09/08 08:57:28;;;;;;;;;9.60;9.60;;;;;;;;5067890;28;8849;-83
2023/09/08 08:59:56;;;;;;;;;11.80;9.80;;;;;;;;5078340;28;8886;-84
2023/09/08 09:02:23;;;;;;;;;12.40;10.80;;;;;;;;5066095;28;8781;-85
2023/09/08 09:04:51;;;;;;;;;12.60;10.80;;;;;;;;5068650;28;8864;-85
2023/09/08 09:07:20;;;;;;;;;14.20;11.80;;;;;;;;5068376;28;8837;-86
2023/09/08 09:09:48;;;;;;;;;10.60;10.60;;;;;;;;5070361;28;8848;-85
2023/09/08 09:12:17;;;;;;;;;10.00;9.60;;;;;;;;5070824;28;9318;-85
2023/09/08 09:14:47;;;;;;;;;10.00;10.00;;;;;;;;5072523;28;8979;-85
2023/09/08 09:17:17;;;;;;;;;9.00;9.00;;;;;;;;5053539;28;8858;-85
2023/09/08 09:19:44;;;;;;;;;12.40;10.00;;;;;;;;5054681;28;8848;-84
2023/09/08 09:22:14;;;;;;;;;12.60;12.60;;;;;;;;5072465;28;8876;-85
2023/09/08 09:24:43;;;;;;;;;13.40;12.20;;;;;;;;5074638;28;9011;-86
2023/09/08 09:27:12;;;;;;;;;8.40;8.40;;;;;;;;5073153;28;9692;-86
2023/09/08 09:29:46;;;;;;;;;11.20;11.20;;;;;;;;5072050;28;8860;-87
2023/09/08 09:32:14;;;;;;;;;9.80;9.80;;;;;;;;5059050;28;8801;-86
2023/09/08 09:34:50;;;;;;;;;7.40;7.40;;;;;;;;5070648;28;9010;-87
2023/09/08 09:37:18;;;;;;;;;13.20;11.00;;;;;;;;5060636;28;8861;-86
2023/09/08 09:39:50;;;;;;;;;10.40;10.40;;;;;;;;5070812;28;8824;-86
2023/09/08 09:42:20;;;;;;;;;10.60;10.60;;;;;;;;5071406;28;8882;-87
2023/09/08 09:44:49;;;;;;;;;9.20;9.20;;;;;;;;5070857;28;8887;-87
2023/09/08 09:47:20;;;;;;;;;8.40;8.40;;;;;;;;5071049;28;8857;-87
2023/09/08 09:49:48;;;;;;;;;11.00;11.00;;;;;;;;5071354;28;8898;-88
2023/09/08 09:52:22;;;;;;;;;9.20;8.40;;;;;;;;5071387;28;8864;-88
2023/09/08 09:54:50;;;;;;;;;9.40;8.80;;;;;;;;5070905;28;8840;-87
2023/09/08 09:57:22;;;;;;;;;9.00;9.00;;;;;;;;5070546;28;8886;-86
2023/09/08 09:59:50;;;;;;;;;8.20;8.20;;;;;;;;5071181;28;8945;-87
2023/09/08 10:02:21;;;;;;;;;10.40;9.20;;;;;;;;5070336;28;8841;-88
2023/09/08 10:04:50;;;;;;;;;7.60;7.40;;;;;;;;5071268;28;8844;-87
2023/09/08 10:07:18;;;;;;;;;9.20;8.60;;;;;;;;5071041;28;8949;-86
2023/09/08 10:09:45;;;;;;;;;9.40;8.00;;;;;;;;5071721;28;8891;-87
2023/09/08 10:12:16;;;;;;;;;12.00;10.60;;;;;;;;5070889;28;8848;-87
2023/09/08 10:14:45;;;;;;;;;8.40;6.80;;;;;;;;5070783;28;8837;-82
2023/09/08 10:17:18;;;;;;;;;10.40;9.40;;;;;;;;5068653;28;8864;-82
2023/09/08 10:19:51;;;;;;;;;8.00;8.00;;;;;;;;5070057;28;8852;-83
2023/09/08 10:22:26;;;;;;;;;8.20;8.20;;;;;;;;5069079;28;8852;-84
2023/09/08 10:24:55;;;;;;;;;9.00;9.00;;;;;;;;5069927;28;8948;-83
2023/09/08 10:27:23;;;;;;;;;9.00;9.00;;;;;;;;5070616;28;9801;-83
2023/09/08 10:29:52;;;;;;;;;10.60;8.80;;;;;;;;5069301;28;8909;-84
2023/09/08 10:32:20;;;;;;;;;10.20;7.00;;;;;;;;5067882;28;9611;-86
2023/09/08 10:34:48;;;;;;;;;9.80;9.80;;;;;;;;5069152;28;8868;-81
2023/09/08 10:37:25;;;;;;;;;7.60;7.60;;;;;;;;5070392;28;8856;-82
2023/09/08 10:39:52;;;;;;;;;10.00;9.40;;;;;;;;5069187;28;8907;-85
2023/09/08 10:42:28;;;;;;;;;7.40;7.40;;;;;;;;5069441;28;8848;-84
2023/09/08 10:45:15;;;;;;;;;6.00;6.00;;;;;;;;5071313;28;8855;-83
2023/09/08 10:47:57;;;;;;;;;8.60;7.00;;;;;;;;5070957;28;9003;-83
2023/09/08 10:50:31;;;;;;;;;8.60;8.60;;;;;;;;5072251;28;8864;-87
2023/09/08 10:53:14;;;;;;;;;6.60;6.60;;;;;;;;5071488;28;8933;-82
2023/09/08 10:55:47;;;;;;;;;9.00;9.00;;;;;;;;5069844;28;8942;-87
2023/09/08 10:58:21;;;;;;;;;10.00;9.80;;;;;;;;5060889;28;8897;-85
2023/09/08 11:00:57;;;;;;;;;9.00;9.00;;;;;;;;5067466;28;8850;-83
2023/09/08 11:03:29;;;;;;;;;8.00;8.00;;;;;;;;5068605;28;8868;-84
2023/09/08 11:05:58;;;;;;;;;6.00;6.00;;;;;;;;5068111;28;9399;-84
2023/09/08 11:08:25;;;;;;;;;6.00;6.00;;;;;;;;5068143;28;9607;-82
2023/09/08 11:10:52;;;;;;;;;9.00;9.00;;;;;;;;5068109;28;8852;-83
2023/09/08 11:13:20;;;;;;;;;8.40;8.40;;;;;;;;5079671;28;8992;-84
2023/09/08 11:15:48;;;;;;;;;6.20;6.20;;;;;;;;5068007;28;8875;-83
2023/09/08 11:18:15;;;;;;;;;7.00;7.00;;;;;;;;5068190;28;8848;-83
2023/09/08 11:20:44;;;;;;;;;7.00;7.00;;;;;;;;5066855;28;8890;-84
2023/09/08 11:23:12;;;;;;;;;6.80;6.80;;;;;;;;5068349;28;8998;-86
2023/09/08 11:25:41;;;;;;;;;9.20;7.40;;;;;;;;5068019;28;8910;-87
2023/09/08 11:28:08;;;;;;;;;7.00;7.00;;;;;;;;5068415;28;8971;-86
2023/09/08 11:30:37;;;;;;;;;7.40;6.20;;;;;;;;5059083;28;8773;-85
2023/09/08 11:33:07;;;;;;;;;9.40;9.00;;;;;;;;5068570;28;8986;-84
2023/09/08 11:35:34;;;;;;;;;7.00;6.80;;;;;;;;5060291;28;9704;-85
2023/09/08 11:38:03;;;;;;;;;8.00;8.00;;;;;;;;5069400;28;9033;-85
2023/09/08 11:40:31;;;;;;;;;7.40;7.40;;;;;;;;5068234;28;8868;-86
2023/09/08 11:43:01;;;;;;;;;5.40;5.40;;;;;;;;5068125;28;8864;-85
2023/09/08 11:45:28;;;;;;;;;7.00;7.00;;;;;;;;5067248;28;8850;-86
2023/09/08 11:47:56;;;;;;;;;11.00;8.00;;;;;;;;5068614;28;8848;-86
2023/09/08 11:50:25;;;;;;;;;8.40;8.00;;;;;;;;5068252;28;8849;-85
2023/09/08 11:52:54;;;;;;;;;9.40;8.00;;;;;;;;5067271;28;8910;-86
2023/09/08 11:55:23;;;;;;;;;7.00;7.00;;;;;;;;5068228;28;8848;-85
2023/09/08 11:57:54;;;;;;;;;10.20;8.80;;;;;;;;5067886;28;8845;-86
2023/09/08 12:00:22;;;;;;;;;5.80;5.80;;;;;;;;5067867;28;8849;-86
2023/09/08 12:02:50;;;;;;;;;4.00;4.00;;;;;;;;5068100;28;8881;-86
2023/09/08 12:05:25;;;;;;;;;12.60;8.20;;;;;;;;5067836;28;8844;-85
2023/09/08 12:07:53;;;;;;;;;8.20;8.20;;;;;;;;5055965;28;8837;-86
2023/09/08 12:10:21;;;;;;;;;9.40;6.80;;;;;;;;5067467;28;8859;-85
2023/09/08 12:12:53;;;;;;;;;8.80;7.00;;;;;;;;5049904;28;8864;-86
2023/09/08 12:15:33;;;;;;;;;7.80;7.80;;;;;;;;5067749;28;8878;-86
2023/09/08 12:18:00;;;;;;;;;6.40;6.40;;;;;;;;5068053;28;8859;-86
2023/09/08 12:20:29;;;;;;;;;6.20;6.20;;;;;;;;5069231;28;8879;-86
2023/09/08 12:23:02;;;;;;;;;9.75;5.75;;;;;;;;5071716;28;8857;-86
2023/09/08 12:25:31;;;;;;;;;7.00;7.00;;;;;;;;5070167;28;8891;-86
2023/09/08 12:27:58;;;;;;;;;6.25;6.25;;;;;;;;5071684;28;8833;-85
2023/09/08 12:30:29;;;;;;;;;8.00;6.75;;;;;;;;5071082;28;8769;-85
2023/09/08 12:32:59;;;;;;;;;7.00;7.00;;;;;;;;5069714;28;8923;-85
2023/09/08 12:35:31;;;;;;;;;7.75;6.75;;;;;;;;5055567;28;8878;-86
2023/09/08 12:38:00;;;;;;;;;9.00;8.25;;;;;;;;5067323;28;8875;-87
2023/09/08 12:40:28;;;;;;;;;7.00;7.00;;;;;;;;5067499;28;8847;-88
2023/09/08 12:42:57;;;;;;;;;6.00;6.00;;;;;;;;5067250;28;8872;-82
2023/09/08 12:45:26;;;;;;;;;8.25;8.25;;;;;;;;5067402;28;8864;-85
2023/09/08 12:47:54;;;;;;;;;7.50;7.50;;;;;;;;5067529;28;8845;-86
2023/09/08 12:50:22;;;;;;;;;8.50;6.75;;;;;;;;5067837;28;8868;-85
2023/09/08 12:52:51;;;;;;;;;8.00;8.00;;;;;;;;5067358;28;8872;-84
2023/09/08 12:55:18;;;;;;;;;5.50;5.50;;;;;;;;5066649;28;9674;-82
2023/09/08 12:57:46;;;;;;;;;8.50;8.50;;;;;;;;5070349;28;8829;-84
2023/09/08 13:00:15;;;;;;;;;7.75;7.75;;;;;;;;5070212;28;8867;-84
2023/09/08 13:02:42;;;;;;;;;7.50;7.50;;;;;;;;5070526;28;8982;-84
2023/09/08 13:05:10;;;;;;;;;8.00;8.00;;;;;;;;5059051;28;8875;-90
2023/09/08 13:07:37;;;;;;;;;7.25;7.25;;;;;;;;5071959;28;8894;-84
2023/09/08 13:10:07;;;;;;;;;5.00;5.00;;;;;;;;5071007;28;8931;-83
2023/09/08 13:12:34;;;;;;;;;8.25;8.00;;;;;;;;5070030;28;8870;-84
2023/09/08 13:15:03;;;;;;;;;6.25;6.25;;;;;;;;5071019;28;8887;-84
2023/09/08 13:17:30;;;;;;;;;8.50;7.50;;;;;;;;5069002;28;8852;-85
2023/09/08 13:19:57;;;;;;;;;7.00;7.00;;;;;;;;5070614;28;8860;-84
2023/09/08 13:22:24;;;;;;;;;6.25;6.25;;;;;;;;5069972;28;8955;-85
2023/09/08 13:24:51;;;;;;;;;6.75;6.75;;;;;;;;5070690;28;8841;-84
2023/09/08 13:27:20;;;;;;;;;8.00;6.50;;;;;;;;5070372;28;8852;-84
2023/09/08 13:29:48;;;;;;;;;8.00;8.00;;;;;;;;5069319;28;8840;-84
2023/09/08 13:32:15;;;;;;;;;7.25;7.00;;;;;;;;5069570;28;8801;-84
2023/09/08 13:34:44;;;;;;;;;8.25;7.00;;;;;;;;5072633;28;8874;-84
2023/09/08 13:37:11;;;;;;;;;10.25;7.75;;;;;;;;5072379;28;8879;-82
2023/09/08 13:39:38;;;;;;;;;6.75;5.75;;;;;;;;5070728;28;8903;-85
2023/09/08 13:42:06;;;;;;;;;9.50;8.50;;;;;;;;5070631;28;8874;-86
2023/09/08 13:44:35;;;;;;;;;6.00;6.00;;;;;;;;5069436;28;8860;-84
2023/09/08 13:47:02;;;;;;;;;7.50;7.50;;;;;;;;5070611;28;8840;-84
2023/09/08 13:49:30;;;;;;;;;8.50;8.50;;;;;;;;5070297;28;8963;-84
2023/09/08 13:51:57;;;;;;;;;8.75;8.25;;;;;;;;5070662;28;8922;-85
2023/09/08 13:57:06;;;;;;;;;4.75;4.75;;;;;;;;5070165;28;9018;-84
2023/09/08 13:59:34;;;;;;;;;9.25;8.50;;;;;;;;5072966;28;8860;-84
2023/09/08 14:02:03;;;;;;;;;6.50;5.75;;;;;;;;5072079;28;8797;-84
2023/09/08 14:04:30;;;;;;;;;11.25;9.75;;;;;;;;5073243;28;8860;-84
2023/09/08 14:06:58;;;;;;;;;8.75;8.25;;;;;;;;5072675;28;8878;-83
2023/09/08 14:09:26;;;;;;;;;7.00;7.00;;;;;;;;5050399;28;9003;-85
2023/09/08 14:11:56;;;;;;;;;8.25;8.25;;;;;;;;5069265;28;8859;-82
2023/09/08 14:14:26;;;;;;;;;7.00;7.00;;;;;;;;5056974;28;8903;-85
2023/09/08 14:16:55;;;;;;;;;8.50;7.00;;;;;;;;5068607;28;8851;-84
2023/09/08 14:19:22;;;;;;;;;7.50;7.50;;;;;;;;5068840;28;9650;-83
2023/09/08 14:21:49;;;;;;;;;7.25;7.25;;;;;;;;5068851;28;9643;-82
2023/09/08 14:24:16;;;;;;;;;7.75;7.75;;;;;;;;5069327;28;8873;-84
2023/09/08 14:26:44;;;;;;;;;6.75;6.75;;;;;;;;5070577;28;8829;-85
2023/09/08 14:29:11;;;;;;;;;8.00;8.00;;;;;;;;5069636;28;9639;-84
2023/09/08 14:31:38;;;;;;;;;9.75;9.50;;;;;;;;5068652;28;8804;-84
2023/09/08 14:34:07;;;;;;;;;7.00;7.00;;;;;;;;5069998;28;8860;-84
2023/09/08 14:36:34;;;;;;;;;6.75;6.75;;;;;;;;5069109;28;8852;-84
2023/09/08 14:39:04;;;;;;;;;9.00;8.25;;;;;;;;5069788;28;8861;-85
2023/09/08 14:41:35;;;;;;;;;9.00;8.00;;;;;;;;5068113;28;8852;-83
2023/09/08 14:44:04;;;;;;;;;7.75;7.75;;;;;;;;5069313;28;8836;-83
2023/09/08 14:46:31;;;;;;;;;9.00;8.25;;;;;;;;5068433;28;8971;-82
2023/09/08 14:48:59;;;;;;;;;8.25;6.50;;;;;;;;5069208;28;8872;-84